createdAt,value
2018-08-28T00:00:03.629Z,5.27
2018-08-28T00:02:31.989Z,4.60
2018-08-28T00:05:01.633Z,5.60
2018-08-28T00:07:30.443Z,6.77
2018-08-28T00:09:59.013Z,6.83
2018-08-28T00:12:27.677Z,10.63
2018-08-28T00:14:56.271Z,5.73
2018-08-28T00:17:24.773Z,7.07
2018-08-28T00:19:53.485Z,6.23
2018-08-28T00:22:21.925Z,3.50
2018-08-28T00:24:50.391Z,4.77
2018-08-28T00:27:18.789Z,7.07
2018-08-28T00:29:47.226Z,7.13
2018-08-28T00:32:15.623Z,6.23
2018-08-28T00:34:44.080Z,4.17
2018-08-28T00:37:12.496Z,5.50
2018-08-28T00:39:40.902Z,5.17
2018-08-28T00:42:09.273Z,3.90
2018-08-28T00:44:37.734Z,5.43
2018-08-28T00:47:06.222Z,4.50
2018-08-28T00:49:34.642Z,4.80
2018-08-28T00:52:03.007Z,6.13
2018-08-28T00:54:31.459Z,6.00
2018-08-28T00:56:59.935Z,7.53
2018-08-28T00:59:28.821Z,6.50
2018-08-28T01:01:57.254Z,4.23
2018-08-28T01:04:25.645Z,4.90
2018-08-28T01:06:54.050Z,4.30
2018-08-28T01:09:28.848Z,3.40
2018-08-28T01:11:57.214Z,4.53
2018-08-28T01:14:26.626Z,12.80
2018-08-28T01:16:54.970Z,11.13
2018-08-28T01:19:23.403Z,6.87
2018-08-28T01:21:51.783Z,5.30
2018-08-28T01:24:20.387Z,4.43
2018-08-28T01:26:48.784Z,5.47
2018-08-28T01:29:17.173Z,9.50
2018-08-28T01:31:45.650Z,5.93
2018-08-28T01:34:14.145Z,3.03
2018-08-28T01:36:42.863Z,3.57
2018-08-28T01:39:11.500Z,7.60
2018-08-28T01:41:39.982Z,6.77
2018-08-28T01:44:08.655Z,4.53
2018-08-28T01:49:27.666Z,8.83
2018-08-28T01:51:56.056Z,5.30
2018-08-28T01:54:25.155Z,10.53
2018-08-28T01:56:54.127Z,4.57
2018-08-28T01:59:22.543Z,11.17
2018-08-28T02:01:51.013Z,5.70
2018-08-28T02:04:19.377Z,4.23
2018-08-28T02:06:47.745Z,5.30
2018-08-28T02:09:16.130Z,7.70
2018-08-28T02:11:44.533Z,9.90
2018-08-28T02:14:12.894Z,7.63
2018-08-28T02:16:41.442Z,9.57
2018-08-28T02:19:09.938Z,5.90
2018-08-28T02:21:38.327Z,7.73
2018-08-28T02:24:07.098Z,9.37
2018-08-28T02:26:35.733Z,5.37
2018-08-28T02:29:04.191Z,5.97
2018-08-28T02:31:32.563Z,5.83
2018-08-28T02:34:00.976Z,5.20
2018-08-28T02:36:29.397Z,7.07
2018-08-28T02:38:57.776Z,7.60
2018-08-28T02:41:26.204Z,14.00
2018-08-28T02:43:54.634Z,7.20
2018-08-28T02:46:22.985Z,9.47
2018-08-28T02:48:51.520Z,9.03
2018-08-28T02:51:19.903Z,9.50
2018-08-28T02:53:48.265Z,10.63
2018-08-28T02:56:16.799Z,10.50
2018-08-28T02:58:45.170Z,7.10
2018-08-28T03:01:13.703Z,9.60
2018-08-28T03:03:42.224Z,9.70
2018-08-28T03:06:10.867Z,5.40
2018-08-28T03:08:39.202Z,9.10
2018-08-28T03:11:07.621Z,10.10
2018-08-28T03:13:36.097Z,5.77
2018-08-28T03:16:04.482Z,10.40
2018-08-28T03:18:32.874Z,7.23
2018-08-28T03:21:01.217Z,9.83
2018-08-28T03:23:29.578Z,13.83
2018-08-28T03:25:57.958Z,8.73
2018-08-28T03:28:26.357Z,9.40
2018-08-28T03:30:54.683Z,8.47
2018-08-28T03:33:23.060Z,11.00
2018-08-28T03:35:51.680Z,11.80
2018-08-28T03:38:20.066Z,10.00
2018-08-28T03:40:48.744Z,16.00
2018-08-28T03:43:18.200Z,8.50
2018-08-28T03:45:46.736Z,7.87
2018-08-28T03:48:15.321Z,10.10
2018-08-28T03:50:44.426Z,16.60
2018-08-28T03:53:12.796Z,6.90
2018-08-28T03:55:41.206Z,7.53
2018-08-28T03:58:10.060Z,9.00
2018-08-28T04:00:38.599Z,6.97
2018-08-28T04:03:06.992Z,14.00
2018-08-28T04:05:35.352Z,9.20
2018-08-28T04:08:04.336Z,9.83
2018-08-28T04:10:32.827Z,8.97
2018-08-28T04:13:01.247Z,10.10
2018-08-28T04:15:29.680Z,12.97
2018-08-28T04:17:58.094Z,12.20
2018-08-28T04:20:26.449Z,13.50
2018-08-28T04:22:54.822Z,11.67
2018-08-28T04:25:23.200Z,14.43
2018-08-28T04:27:51.847Z,9.53
2018-08-28T04:30:20.255Z,10.87
2018-08-28T04:32:48.610Z,9.17
2018-08-28T04:35:17.030Z,10.13
2018-08-28T04:37:46.543Z,11.13
2018-08-28T04:40:14.923Z,11.20
2018-08-28T04:42:43.435Z,9.60
2018-08-28T04:45:11.965Z,8.23
2018-08-28T04:47:40.316Z,9.80
2018-08-28T04:50:08.769Z,10.00
2018-08-28T04:52:37.264Z,12.40
2018-08-28T04:55:06.173Z,11.03
2018-08-28T04:57:34.616Z,7.40
2018-08-28T05:00:03.076Z,8.53
2018-08-28T05:02:35.229Z,11.30
2018-08-28T05:05:06.069Z,11.70
2018-08-28T05:07:34.769Z,9.37
2018-08-28T05:10:03.679Z,10.50
2018-08-28T05:12:32.094Z,10.60
2018-08-28T05:15:00.782Z,7.93
2018-08-28T05:17:29.167Z,14.33
2018-08-28T05:19:57.597Z,10.37
2018-08-28T05:22:26.523Z,14.43
2018-08-28T05:24:53.896Z,12.30
2018-08-28T05:27:22.614Z,17.53
2018-08-28T05:29:51.199Z,8.07
2018-08-28T05:32:19.569Z,11.03
2018-08-28T05:34:48.098Z,12.33
2018-08-28T05:37:16.527Z,9.43
2018-08-28T05:39:44.946Z,9.00
2018-08-28T05:42:13.324Z,7.83
2018-08-28T05:44:41.728Z,7.80
2018-08-28T05:47:10.686Z,10.63
2018-08-28T05:49:39.136Z,9.53
2018-08-28T05:52:07.502Z,11.33
2018-08-28T05:54:35.820Z,9.90
2018-08-28T05:57:04.230Z,14.90
2018-08-28T05:59:39.259Z,10.53
2018-08-28T06:02:08.256Z,14.33
2018-08-28T06:04:36.832Z,14.60
2018-08-28T06:07:05.187Z,11.07
2018-08-28T06:09:33.758Z,10.40
2018-08-28T06:12:02.219Z,6.57
2018-08-28T06:14:30.597Z,10.47
2018-08-28T06:16:58.955Z,11.33
2018-08-28T06:19:27.355Z,8.60
2018-08-28T06:21:55.728Z,9.93
2018-08-28T06:24:24.078Z,12.37
2018-08-28T06:26:52.484Z,7.63
2018-08-28T06:29:21.070Z,7.30
2018-08-28T06:31:49.520Z,6.97
2018-08-28T06:34:17.959Z,11.93
2018-08-28T06:36:46.314Z,14.37
2018-08-28T06:39:14.711Z,21.30
2018-08-28T06:41:43.065Z,13.23
2018-08-28T06:44:11.589Z,12.90
2018-08-28T06:46:40.043Z,15.13
2018-08-28T06:49:08.471Z,12.10
2018-08-28T06:51:36.871Z,12.40
2018-08-28T06:54:05.302Z,12.70
2018-08-28T06:56:33.690Z,13.37
2018-08-28T06:59:02.355Z,12.20
2018-08-28T07:01:30.698Z,8.20
2018-08-28T07:03:59.160Z,11.17
2018-08-28T07:06:27.530Z,15.43
2018-08-28T07:08:56.141Z,10.20
2018-08-28T07:11:24.465Z,13.77
2018-08-28T07:13:52.909Z,10.33
2018-08-28T07:16:21.831Z,8.50
2018-08-28T07:18:50.279Z,9.23
2018-08-28T07:21:18.529Z,16.53
2018-08-28T07:23:53.584Z,12.27
2018-08-28T07:26:21.949Z,11.30
2018-08-28T07:28:50.256Z,11.83
2018-08-28T07:31:18.706Z,8.97
2018-08-28T07:33:47.060Z,10.27
2018-08-28T07:36:15.505Z,9.47
2018-08-28T07:38:43.912Z,11.57
2018-08-28T07:41:12.299Z,8.23
2018-08-28T07:43:40.749Z,12.20
2018-08-28T07:46:09.184Z,9.27
2018-08-28T07:48:37.538Z,14.77
2018-08-28T07:51:06.021Z,12.57
2018-08-28T07:53:35.109Z,12.40
2018-08-28T07:56:03.484Z,8.77
2018-08-28T07:58:31.893Z,13.30
2018-08-28T08:01:00.452Z,11.93
2018-08-28T08:03:28.981Z,9.50
2018-08-28T08:05:57.456Z,9.20
2018-08-28T08:08:25.802Z,19.53
2018-08-28T08:10:54.811Z,14.90
2018-08-28T08:13:23.322Z,28.83
2018-08-28T08:15:51.722Z,13.30
2018-08-28T08:18:20.771Z,10.50
2018-08-28T08:20:49.172Z,10.77
2018-08-28T08:23:17.728Z,11.37
2018-08-28T08:25:46.117Z,10.60
2018-08-28T08:28:14.717Z,9.77
2018-08-28T08:30:42.969Z,8.90
2018-08-28T08:33:11.371Z,22.23
2018-08-28T08:35:39.878Z,15.17
2018-08-28T08:38:08.296Z,8.10
2018-08-28T08:40:36.725Z,8.87
2018-08-28T08:43:05.180Z,11.47
2018-08-28T08:45:33.587Z,8.90
2018-08-28T08:48:02.134Z,8.27
2018-08-28T08:50:30.647Z,10.73
2018-08-28T08:52:59.039Z,7.10
2018-08-28T08:55:27.427Z,11.87
2018-08-28T08:57:55.839Z,10.87
2018-08-28T09:00:24.313Z,11.37
2018-08-28T09:02:53.934Z,15.47
2018-08-28T09:05:22.354Z,8.10
2018-08-28T09:07:50.763Z,11.17
2018-08-28T09:10:19.277Z,13.27
2018-08-28T09:12:48.246Z,12.50
2018-08-28T09:15:16.900Z,11.40
2018-08-28T09:17:45.276Z,16.70
2018-08-28T09:20:13.623Z,12.27
2018-08-28T09:22:42.071Z,11.93
2018-08-28T09:25:10.581Z,14.23
2018-08-28T09:27:38.958Z,8.53
2018-08-28T09:30:08.233Z,11.50
2018-08-28T09:32:36.587Z,21.03
2018-08-28T09:35:05.334Z,14.23
2018-08-28T09:37:33.736Z,18.13
2018-08-28T09:40:02.329Z,12.70
2018-08-28T09:42:30.732Z,10.93
2018-08-28T09:44:59.161Z,9.10
2018-08-28T09:47:27.820Z,15.27
2018-08-28T09:49:56.235Z,12.20
2018-08-28T09:52:24.566Z,6.33
2018-08-28T09:54:52.923Z,9.63
2018-08-28T09:57:21.311Z,13.33
2018-08-28T09:59:49.883Z,15.80
2018-08-28T10:02:18.763Z,12.70
2018-08-28T10:04:47.213Z,15.07
2018-08-28T10:07:15.715Z,15.53
2018-08-28T10:09:44.125Z,8.07
2018-08-28T10:12:12.706Z,18.43
2018-08-28T10:14:41.170Z,25.37
2018-08-28T10:17:09.539Z,9.80
2018-08-28T10:19:37.865Z,10.13
2018-08-28T10:22:06.391Z,12.33
2018-08-28T10:24:34.845Z,15.90
2018-08-28T10:27:03.233Z,19.87
2018-08-28T10:29:31.664Z,11.47
2018-08-28T10:31:59.994Z,14.17
2018-08-28T10:34:28.387Z,11.30
2018-08-28T10:36:56.776Z,11.77
2018-08-28T10:39:25.316Z,13.00
2018-08-28T10:41:53.680Z,13.20
2018-08-28T10:44:22.205Z,7.90
2018-08-28T10:46:50.958Z,18.73
2018-08-28T10:49:19.123Z,14.03
2018-08-28T10:51:47.531Z,10.83
2018-08-28T10:54:15.873Z,13.03
2018-08-28T10:56:44.292Z,16.77
2018-08-28T10:59:12.926Z,19.97
2018-08-28T11:01:41.290Z,12.67
2018-08-28T11:04:09.660Z,17.33
2018-08-28T11:06:38.064Z,15.43
2018-08-28T11:09:06.848Z,11.97
2018-08-28T11:11:35.231Z,15.43
2018-08-28T11:14:03.633Z,17.40
2018-08-28T11:16:32.045Z,7.50
2018-08-28T11:19:00.838Z,20.80
2018-08-28T11:21:29.277Z,17.50
2018-08-28T11:23:57.698Z,13.10
2018-08-28T11:26:26.098Z,15.30
2018-08-28T11:28:54.455Z,12.60
2018-08-28T11:31:22.881Z,20.10
2018-08-28T11:33:51.288Z,13.57
2018-08-28T11:36:19.722Z,15.27
2018-08-28T11:38:48.171Z,14.17
2018-08-28T11:41:16.539Z,14.50
2018-08-28T11:43:44.903Z,9.90
2018-08-28T11:46:13.296Z,15.40
2018-08-28T11:48:41.923Z,11.03
2018-08-28T11:51:10.325Z,9.27
2018-08-28T11:53:38.741Z,13.27
2018-08-28T11:56:07.192Z,12.20
2018-08-28T11:58:35.628Z,14.07
2018-08-28T12:01:03.986Z,12.07
2018-08-28T12:03:32.563Z,18.53
2018-08-28T12:06:01.188Z,10.67
2018-08-28T12:08:29.896Z,14.03
2018-08-28T12:10:58.337Z,9.57
2018-08-28T12:13:26.876Z,12.40
2018-08-28T12:15:55.359Z,10.50
2018-08-28T12:18:23.814Z,13.70
2018-08-28T12:20:52.341Z,10.20
2018-08-28T12:23:20.599Z,13.33
2018-08-28T12:25:49.062Z,9.73
2018-08-28T12:28:17.443Z,8.63
2018-08-28T12:30:45.861Z,8.50
2018-08-28T12:33:14.312Z,9.67
2018-08-28T12:35:42.715Z,8.50
2018-08-28T12:38:11.066Z,8.60
2018-08-28T12:40:39.503Z,10.50
2018-08-28T12:43:08.001Z,9.70
2018-08-28T12:45:36.468Z,11.40
2018-08-28T12:48:04.983Z,8.27
2018-08-28T12:50:33.869Z,9.40
2018-08-28T12:53:02.217Z,10.43
2018-08-28T12:55:30.603Z,10.47
2018-08-28T12:57:59.544Z,11.80
2018-08-28T13:00:28.000Z,9.50
2018-08-28T13:02:56.248Z,8.50
2018-08-28T13:05:24.652Z,9.27
2018-08-28T13:07:53.017Z,9.27
2018-08-28T13:10:21.510Z,11.90
2018-08-28T13:12:49.864Z,11.23
2018-08-28T13:15:18.274Z,7.97
2018-08-28T13:17:47.384Z,8.27
2018-08-28T13:20:15.792Z,9.57
2018-08-28T13:22:44.195Z,8.20
2018-08-28T13:25:12.650Z,7.23
2018-08-28T13:27:40.974Z,7.30
2018-08-28T13:30:09.386Z,9.30
2018-08-28T13:32:37.953Z,7.30
2018-08-28T13:35:06.364Z,7.60
2018-08-28T13:37:34.753Z,7.47
2018-08-28T13:40:03.142Z,7.73
2018-08-28T13:42:31.453Z,7.27
2018-08-28T13:44:59.841Z,6.97
2018-08-28T13:47:28.791Z,8.77
2018-08-28T13:49:57.271Z,7.53
2018-08-28T13:52:25.599Z,7.90
2018-08-28T13:55:00.802Z,8.47
2018-08-28T13:57:29.256Z,8.57
2018-08-28T13:59:57.731Z,7.33
2018-08-28T14:02:26.112Z,8.73
2018-08-28T14:04:54.423Z,7.90
2018-08-28T14:07:23.653Z,7.57
2018-08-28T14:09:52.088Z,8.37
2018-08-28T14:12:20.444Z,8.20
2018-08-28T14:14:48.932Z,7.30
2018-08-28T14:17:17.143Z,7.93
2018-08-28T14:19:45.613Z,8.90
2018-08-28T14:22:14.153Z,8.20
2018-08-28T14:24:42.553Z,8.67
2018-08-28T14:27:10.959Z,7.97
2018-08-28T14:29:39.411Z,8.03
2018-08-28T14:32:08.047Z,8.23
2018-08-28T14:34:36.387Z,7.77
2018-08-28T14:37:04.868Z,8.53
2018-08-28T14:39:33.331Z,8.80
2018-08-28T14:42:01.737Z,9.37
2018-08-28T14:44:30.300Z,8.13
2018-08-28T14:46:58.674Z,9.37
2018-08-28T14:49:27.101Z,11.10
2018-08-28T14:51:56.052Z,9.60
2018-08-28T14:54:24.956Z,8.37
2018-08-28T14:56:53.433Z,7.33
2018-08-28T14:59:22.603Z,7.83
2018-08-28T15:01:51.046Z,7.73
2018-08-28T15:04:19.413Z,9.13
2018-08-28T15:06:47.991Z,7.90
2018-08-28T15:09:16.318Z,7.93
2018-08-28T15:11:44.708Z,7.50
2018-08-28T15:14:13.725Z,7.87
2018-08-28T15:16:42.279Z,8.87
2018-08-28T15:19:10.957Z,8.73
2018-08-28T15:21:39.386Z,8.73
2018-08-28T15:24:08.045Z,8.80
2018-08-28T15:26:36.515Z,12.00
2018-08-28T15:29:04.948Z,9.03
2018-08-28T15:31:33.327Z,8.90
2018-08-28T15:34:01.833Z,8.17
2018-08-28T15:36:30.387Z,9.20
2018-08-28T15:38:58.752Z,8.60
2018-08-28T15:41:27.426Z,9.43
2018-08-28T15:43:55.850Z,9.07
2018-08-28T15:46:24.465Z,11.67
2018-08-28T15:48:53.028Z,9.60
2018-08-28T15:51:22.437Z,9.33
2018-08-28T15:53:50.766Z,19.30
2018-08-28T15:56:19.890Z,11.57
2018-08-28T15:58:49.227Z,9.00
2018-08-28T16:01:17.885Z,9.00
2018-08-28T16:03:46.249Z,8.97
2018-08-28T16:06:14.619Z,7.83
2018-08-28T16:08:43.027Z,8.20
2018-08-28T16:11:11.621Z,7.20
2018-08-28T16:13:40.043Z,8.97
2018-08-28T16:16:09.261Z,10.33
2018-08-28T16:18:37.933Z,8.97
2018-08-28T16:21:06.385Z,8.47
2018-08-28T16:23:39.619Z,9.33
2018-08-28T16:26:08.218Z,9.03
2018-08-28T16:28:37.002Z,8.90
2018-08-28T16:31:05.682Z,8.67
2018-08-28T16:33:34.105Z,9.80
2018-08-28T16:36:02.453Z,8.63
2018-08-28T16:38:30.893Z,9.00
2018-08-28T16:40:59.311Z,8.90
2018-08-28T16:43:27.610Z,9.17
2018-08-28T16:45:55.951Z,9.00
2018-08-28T16:48:24.345Z,10.73
2018-08-28T16:50:52.702Z,9.70
2018-08-28T16:53:21.896Z,9.10
2018-08-28T16:55:50.329Z,10.07
2018-08-28T16:58:18.691Z,15.10
2018-08-28T17:00:47.050Z,10.17
2018-08-28T17:03:15.946Z,11.50
2018-08-28T17:05:44.368Z,13.43
2018-08-28T17:08:12.745Z,9.83
2018-08-28T17:10:41.111Z,11.43
2018-08-28T17:13:09.461Z,14.10
2018-08-28T17:15:37.965Z,9.87
2018-08-28T17:18:06.321Z,10.10
2018-08-28T17:20:34.682Z,10.00
2018-08-28T17:23:03.097Z,20.97
2018-08-28T17:25:31.483Z,13.07
2018-08-28T17:28:02.210Z,12.23
2018-08-28T17:30:30.584Z,14.10
2018-08-28T17:32:58.991Z,13.87
2018-08-28T17:35:27.547Z,17.03
2018-08-28T17:37:56.123Z,14.93
2018-08-28T17:40:24.598Z,13.00
2018-08-28T17:42:53.128Z,13.37
2018-08-28T17:45:21.591Z,15.67
2018-08-28T17:47:49.968Z,19.03
2018-08-28T17:50:18.468Z,16.23
2018-08-28T17:52:47.341Z,18.27
2018-08-28T17:55:22.065Z,11.20
2018-08-28T17:57:50.528Z,14.80
2018-08-28T18:00:18.982Z,12.20
2018-08-28T18:02:47.664Z,17.90
2018-08-28T18:05:16.046Z,13.40
2018-08-28T18:07:44.491Z,18.23
2018-08-28T18:10:12.958Z,22.77
2018-08-28T18:12:41.994Z,15.40
2018-08-28T18:15:10.464Z,14.57
2018-08-28T18:17:38.864Z,16.03
2018-08-28T18:20:07.308Z,16.03
2018-08-28T18:22:36.882Z,14.93
2018-08-28T18:25:05.898Z,15.10
2018-08-28T18:27:35.012Z,11.87
2018-08-28T18:30:04.482Z,15.53
2018-08-28T18:32:32.975Z,14.93
2018-08-28T18:35:01.548Z,12.37
2018-08-28T18:37:30.247Z,17.90
2018-08-28T18:39:59.799Z,15.23
2018-08-28T18:42:28.974Z,13.80
2018-08-28T18:44:57.905Z,14.00
2018-08-28T18:47:26.544Z,14.90
2018-08-28T18:49:55.581Z,13.17
2018-08-28T18:52:24.326Z,13.50
2018-08-28T18:54:52.741Z,12.33
2018-08-28T18:57:21.277Z,22.70
2018-08-28T18:59:49.847Z,14.83
2018-08-28T19:02:18.457Z,11.63
2018-08-28T19:04:46.975Z,17.10
2018-08-28T19:07:15.744Z,15.90
2018-08-28T19:09:44.467Z,15.47
2018-08-28T19:12:13.652Z,20.80
2018-08-28T19:14:42.400Z,16.60
2018-08-28T19:17:11.099Z,12.17
2018-08-28T19:19:39.460Z,9.70
2018-08-28T19:22:08.431Z,16.13
2018-08-28T19:24:36.949Z,17.27
2018-08-28T19:27:10.439Z,14.80
2018-08-28T19:29:38.833Z,23.10
2018-08-28T19:32:07.438Z,9.37
2018-08-28T19:34:36.048Z,20.57
2018-08-28T19:37:04.424Z,14.90
2018-08-28T19:39:32.822Z,8.80
2018-08-28T19:42:01.517Z,14.47
2018-08-28T19:44:30.014Z,17.60
2018-08-28T19:46:59.229Z,18.93
2018-08-28T19:49:27.609Z,24.10
2018-08-28T19:51:55.972Z,24.47
2018-08-28T19:54:24.386Z,15.57
2018-08-28T19:56:53.742Z,15.60
2018-08-28T19:59:22.098Z,13.43
2018-08-28T20:01:50.479Z,12.93
2018-08-28T20:04:18.837Z,14.83
2018-08-28T20:06:47.275Z,14.17
2018-08-28T20:09:15.695Z,19.63
2018-08-28T20:11:44.158Z,19.67
2018-08-28T20:14:12.573Z,20.67
2018-08-28T20:16:40.983Z,17.47
2018-08-28T20:19:09.373Z,16.20
2018-08-28T20:21:37.804Z,18.93
2018-08-28T20:24:06.334Z,15.60
2018-08-28T20:26:34.785Z,17.87
2018-08-28T20:29:03.177Z,17.13
2018-08-28T20:31:31.621Z,14.93
2018-08-28T20:34:00.142Z,20.37
2018-08-28T20:36:28.706Z,23.47
2018-08-28T20:38:57.053Z,17.80
2018-08-28T20:41:25.450Z,16.77
2018-08-28T20:43:53.832Z,18.83
2018-08-28T20:46:22.237Z,22.00
2018-08-28T20:48:50.670Z,13.53
2018-08-28T20:51:19.036Z,18.67
2018-08-28T20:53:47.478Z,19.57
2018-08-28T20:56:15.910Z,17.67
2018-08-28T20:58:44.334Z,16.37
2018-08-28T21:01:15.791Z,17.60
2018-08-28T21:03:44.174Z,16.97
2018-08-28T21:06:12.532Z,21.10
2018-08-28T21:08:40.909Z,17.10
2018-08-28T21:11:09.430Z,15.70
2018-08-28T21:13:37.988Z,16.10
2018-08-28T21:16:06.671Z,16.83
2018-08-28T21:18:35.148Z,17.87
2018-08-28T21:21:03.479Z,20.50
2018-08-28T21:23:31.820Z,16.07
2018-08-28T21:26:00.269Z,15.37
2018-08-28T21:28:28.649Z,18.80
2018-08-28T21:30:57.012Z,17.80
2018-08-28T21:33:25.413Z,17.83
2018-08-28T21:35:53.753Z,16.03
2018-08-28T21:38:22.158Z,15.57
2018-08-28T21:40:50.540Z,13.40
2018-08-28T21:43:18.924Z,12.40
2018-08-28T21:45:47.281Z,18.33
2018-08-28T21:48:16.523Z,25.87
2018-08-28T21:50:44.826Z,16.10
2018-08-28T21:53:13.252Z,12.03
2018-08-28T21:55:41.769Z,16.07
2018-08-28T21:58:10.180Z,19.90
2018-08-28T22:00:38.686Z,19.03
2018-08-28T22:03:07.008Z,13.70
2018-08-28T22:05:35.393Z,18.80
2018-08-28T22:08:05.046Z,18.53
2018-08-28T22:10:33.728Z,18.47
2018-08-28T22:13:02.174Z,13.20
2018-08-28T22:15:30.617Z,12.90
2018-08-28T22:17:59.003Z,18.27
2018-08-28T22:20:27.486Z,17.60
2018-08-28T22:22:55.829Z,12.83
2018-08-28T22:25:24.187Z,18.83
2018-08-28T22:27:52.560Z,15.27
2018-08-28T22:30:20.931Z,16.80
2018-08-28T22:32:49.417Z,16.07
2018-08-28T22:35:17.729Z,17.40
2018-08-28T22:37:46.153Z,16.93
2018-08-28T22:40:14.481Z,15.57
2018-08-28T22:42:42.861Z,17.63
2018-08-28T22:45:11.298Z,19.70
2018-08-28T22:47:39.713Z,17.20
2018-08-28T22:50:08.056Z,15.70
2018-08-28T22:52:36.463Z,18.57
2018-08-28T22:55:04.912Z,17.10
2018-08-28T22:57:33.387Z,14.37
2018-08-28T23:00:01.715Z,18.83
2018-08-28T23:02:30.140Z,16.57
2018-08-28T23:04:58.683Z,16.33
2018-08-28T23:07:27.232Z,21.60
2018-08-28T23:09:56.522Z,17.70
2018-08-28T23:12:24.924Z,19.70
2018-08-28T23:14:53.324Z,21.70
2018-08-28T23:17:21.720Z,16.60
2018-08-28T23:19:50.157Z,23.13
2018-08-28T23:22:18.774Z,20.43
2018-08-28T23:24:47.303Z,25.40
2018-08-28T23:27:16.177Z,19.87
2018-08-28T23:29:44.677Z,13.90
2018-08-28T23:32:13.145Z,20.67
2018-08-28T23:34:41.614Z,16.97
2018-08-28T23:37:09.998Z,17.50
2018-08-28T23:39:38.665Z,22.80
2018-08-28T23:42:07.012Z,18.97
2018-08-28T23:44:35.430Z,18.87
2018-08-28T23:47:03.854Z,18.10
2018-08-28T23:49:32.393Z,19.63
2018-08-28T23:52:01.631Z,18.50
2018-08-28T23:54:30.117Z,17.70
2018-08-28T23:56:58.569Z,17.93
2018-08-28T23:59:27.051Z,17.37
